sensor_id;sensor_type;location;lat;lon;timestamp;P1;durP1;ratioP1;P2;durP2;ratioP2
58412;SDS011;44209;52.952;6.790;2023-05-31T00:02:12;7.57;;;4.77;;
58412;SDS011;44209;52.952;6.790;2023-05-31T00:04:38;11.20;;;5.93;;
58412;SDS011;44209;52.952;6.790;2023-05-31T00:07:04;13.10;;;5.83;;
58412;SDS011;44209;52.952;6.790;2023-05-31T00:09:31;10.20;;;5.60;;
58412;SDS011;44209;52.952;6.790;2023-05-31T00:11:57;11.43;;;5.73;;
58412;SDS011;44209;52.952;6.790;2023-05-31T00:14:22;11.97;;;5.97;;
58412;SDS011;44209;52.952;6.790;2023-05-31T00:16:49;11.50;;;6.00;;
58412;SDS011;44209;52.952;6.790;2023-05-31T00:19:14;11.07;;;6.03;;
58412;SDS011;44209;52.952;6.790;2023-05-31T00:21:40;10.93;;;5.97;;
58412;SDS011;44209;52.952;6.790;2023-05-31T00:24:07;12.23;;;6.77;;
58412;SDS011;44209;52.952;6.790;2023-05-31T00:26:33;12.10;;;6.47;;
58412;SDS011;44209;52.952;6.790;2023-05-31T00:28:59;12.83;;;6.20;;
58412;SDS011;44209;52.952;6.790;2023-05-31T00:31:25;10.70;;;6.53;;
58412;SDS011;44209;52.952;6.790;2023-05-31T00:33:50;10.67;;;6.27;;
58412;SDS011;44209;52.952;6.790;2023-05-31T00:36:16;11.63;;;6.80;;
58412;SDS011;44209;52.952;6.790;2023-05-31T00:38:42;12.63;;;6.10;;
58412;SDS011;44209;52.952;6.790;2023-05-31T00:41:08;13.03;;;6.40;;
58412;SDS011;44209;52.952;6.790;2023-05-31T00:43:35;11.40;;;6.40;;
58412;SDS011;44209;52.952;6.790;2023-05-31T00:46:01;11.20;;;6.50;;
58412;SDS011;44209;52.952;6.790;2023-05-31T00:48:27;10.00;;;6.17;;
58412;SDS011;44209;52.952;6.790;2023-05-31T00:50:54;12.00;;;6.13;;
58412;SDS011;44209;52.952;6.790;2023-05-31T00:53:21;11.57;;;5.90;;
58412;SDS011;44209;52.952;6.790;2023-05-31T00:55:47;10.27;;;5.97;;
58412;SDS011;44209;52.952;6.790;2023-05-31T00:58:15;10.40;;;6.13;;
58412;SDS011;44209;52.952;6.790;2023-05-31T01:00:41;10.60;;;6.10;;
58412;SDS011;44209;52.952;6.790;2023-05-31T01:03:07;8.93;;;5.60;;
58412;SDS011;44209;52.952;6.790;2023-05-31T01:05:37;11.63;;;6.30;;
58412;SDS011;44209;52.952;6.790;2023-05-31T01:08:02;12.60;;;6.13;;
58412;SDS011;44209;52.952;6.790;2023-05-31T01:10:28;11.90;;;6.03;;
58412;SDS011;44209;52.952;6.790;2023-05-31T01:15:31;13.27;;;6.00;;
58412;SDS011;44209;52.952;6.790;2023-05-31T01:18:49;13.43;;;6.40;;
58412;SDS011;44209;52.952;6.790;2023-05-31T01:21:00;14.17;;;6.23;;
58412;SDS011;44209;52.952;6.790;2023-05-31T01:28:55;11.17;;;6.10;;
58412;SDS011;44209;52.952;6.790;2023-05-31T01:31:24;11.93;;;6.53;;
58412;SDS011;44209;52.952;6.790;2023-05-31T01:33:52;11.13;;;6.30;;
58412;SDS011;44209;52.952;6.790;2023-05-31T01:36:19;13.27;;;6.90;;
58412;SDS011;44209;52.952;6.790;2023-05-31T01:38:45;13.30;;;6.03;;
58412;SDS011;44209;52.952;6.790;2023-05-31T01:41:13;13.93;;;6.20;;
58412;SDS011;44209;52.952;6.790;2023-05-31T01:43:41;11.93;;;6.10;;
58412;SDS011;44209;52.952;6.790;2023-05-31T01:46:09;14.37;;;6.93;;
58412;SDS011;44209;52.952;6.790;2023-05-31T01:48:37;13.67;;;6.80;;
58412;SDS011;44209;52.952;6.790;2023-05-31T01:51:05;11.93;;;6.57;;
58412;SDS011;44209;52.952;6.790;2023-05-31T01:53:34;13.27;;;6.93;;
58412;SDS011;44209;52.952;6.790;2023-05-31T01:55:59;13.77;;;7.07;;
58412;SDS011;44209;52.952;6.790;2023-05-31T01:58:27;12.67;;;6.37;;
58412;SDS011;44209;52.952;6.790;2023-05-31T02:00:55;13.53;;;6.30;;
58412;SDS011;44209;52.952;6.790;2023-05-31T02:03:21;13.80;;;6.53;;
58412;SDS011;44209;52.952;6.790;2023-05-31T02:05:57;13.83;;;6.93;;
58412;SDS011;44209;52.952;6.790;2023-05-31T02:08:24;17.60;;;7.60;;
58412;SDS011;44209;52.952;6.790;2023-05-31T02:10:50;14.00;;;6.67;;
58412;SDS011;44209;52.952;6.790;2023-05-31T02:13:17;15.80;;;7.20;;
58412;SDS011;44209;52.952;6.790;2023-05-31T02:15:44;16.83;;;7.43;;
58412;SDS011;44209;52.952;6.790;2023-05-31T02:18:10;14.03;;;7.23;;
58412;SDS011;44209;52.952;6.790;2023-05-31T02:20:37;15.47;;;7.57;;
58412;SDS011;44209;52.952;6.790;2023-05-31T02:23:03;17.17;;;7.33;;
58412;SDS011;44209;52.952;6.790;2023-05-31T02:25:29;14.70;;;6.93;;
58412;SDS011;44209;52.952;6.790;2023-05-31T02:27:54;15.87;;;7.60;;
58412;SDS011;44209;52.952;6.790;2023-05-31T02:30:20;13.63;;;7.47;;
58412;SDS011;44209;52.952;6.790;2023-05-31T02:32:46;15.07;;;7.97;;
58412;SDS011;44209;52.952;6.790;2023-05-31T02:35:11;13.63;;;7.93;;
58412;SDS011;44209;52.952;6.790;2023-05-31T02:37:37;16.57;;;7.67;;
58412;SDS011;44209;52.952;6.790;2023-05-31T02:40:05;18.17;;;7.27;;
58412;SDS011;44209;52.952;6.790;2023-05-31T02:42:34;16.27;;;7.40;;
58412;SDS011;44209;52.952;6.790;2023-05-31T02:45:01;17.00;;;7.60;;
58412;SDS011;44209;52.952;6.790;2023-05-31T02:47:27;17.37;;;7.67;;
58412;SDS011;44209;52.952;6.790;2023-05-31T02:49:53;16.07;;;7.30;;
58412;SDS011;44209;52.952;6.790;2023-05-31T02:52:18;17.13;;;7.37;;
58412;SDS011;44209;52.952;6.790;2023-05-31T02:54:44;14.03;;;7.47;;
58412;SDS011;44209;52.952;6.790;2023-05-31T02:57:10;18.80;;;7.70;;
58412;SDS011;44209;52.952;6.790;2023-05-31T02:59:35;13.57;;;7.60;;
58412;SDS011;44209;52.952;6.790;2023-05-31T03:02:01;18.10;;;8.47;;
58412;SDS011;44209;52.952;6.790;2023-05-31T03:04:27;15.63;;;7.40;;
58412;SDS011;44209;52.952;6.790;2023-05-31T03:06:53;19.23;;;8.60;;
58412;SDS011;44209;52.952;6.790;2023-05-31T03:09:18;19.70;;;8.20;;
58412;SDS011;44209;52.952;6.790;2023-05-31T03:11:44;20.97;;;8.37;;
58412;SDS011;44209;52.952;6.790;2023-05-31T03:14:10;21.87;;;8.70;;
58412;SDS011;44209;52.952;6.790;2023-05-31T03:16:36;22.40;;;9.20;;
58412;SDS011;44209;52.952;6.790;2023-05-31T03:19:02;21.70;;;9.77;;
58412;SDS011;44209;52.952;6.790;2023-05-31T03:21:28;21.53;;;10.00;;
58412;SDS011;44209;52.952;6.790;2023-05-31T03:23:54;23.90;;;9.77;;
58412;SDS011;44209;52.952;6.790;2023-05-31T03:26:20;24.57;;;10.47;;
58412;SDS011;44209;52.952;6.790;2023-05-31T03:28:45;26.10;;;10.83;;
58412;SDS011;44209;52.952;6.790;2023-05-31T03:31:11;24.37;;;10.47;;
58412;SDS011;44209;52.952;6.790;2023-05-31T03:33:37;22.53;;;11.03;;
58412;SDS011;44209;52.952;6.790;2023-05-31T03:36:03;25.30;;;10.83;;
58412;SDS011;44209;52.952;6.790;2023-05-31T03:38:29;22.80;;;10.30;;
58412;SDS011;44209;52.952;6.790;2023-05-31T03:40:55;21.73;;;9.90;;
58412;SDS011;44209;52.952;6.790;2023-05-31T03:43:21;22.70;;;10.00;;
58412;SDS011;44209;52.952;6.790;2023-05-31T03:45:46;23.87;;;11.17;;
58412;SDS011;44209;52.952;6.790;2023-05-31T03:48:12;24.67;;;9.83;;
58412;SDS011;44209;52.952;6.790;2023-05-31T03:50:43;23.97;;;10.53;;
58412;SDS011;44209;52.952;6.790;2023-05-31T03:53:08;23.30;;;10.30;;
58412;SDS011;44209;52.952;6.790;2023-05-31T03:55:34;25.70;;;11.30;;
58412;SDS011;44209;52.952;6.790;2023-05-31T03:58:01;22.07;;;10.13;;
58412;SDS011;44209;52.952;6.790;2023-05-31T04:00:27;23.83;;;9.87;;
58412;SDS011;44209;52.952;6.790;2023-05-31T04:02:53;24.33;;;11.03;;
58412;SDS011;44209;52.952;6.790;2023-05-31T04:05:19;26.80;;;10.50;;
58412;SDS011;44209;52.952;6.790;2023-05-31T04:07:45;24.90;;;10.83;;
58412;SDS011;44209;52.952;6.790;2023-05-31T04:10:10;28.90;;;11.13;;
58412;SDS011;44209;52.952;6.790;2023-05-31T04:12:36;23.97;;;10.97;;
58412;SDS011;44209;52.952;6.790;2023-05-31T04:15:02;25.20;;;11.07;;
58412;SDS011;44209;52.952;6.790;2023-05-31T04:17:28;28.53;;;10.73;;
58412;SDS011;44209;52.952;6.790;2023-05-31T04:19:54;23.93;;;10.33;;
58412;SDS011;44209;52.952;6.790;2023-05-31T04:22:20;25.57;;;10.63;;
58412;SDS011;44209;52.952;6.790;2023-05-31T04:24:45;22.80;;;10.43;;
58412;SDS011;44209;52.952;6.790;2023-05-31T04:27:11;21.93;;;10.77;;
58412;SDS011;44209;52.952;6.790;2023-05-31T04:29:43;22.85;;;10.98;;
58412;SDS011;44209;52.952;6.790;2023-05-31T04:32:11;22.03;;;10.37;;
58412;SDS011;44209;52.952;6.790;2023-05-31T04:34:40;23.43;;;10.87;;
58412;SDS011;44209;52.952;6.790;2023-05-31T04:37:06;25.80;;;10.47;;
58412;SDS011;44209;52.952;6.790;2023-05-31T04:39:32;24.10;;;10.53;;
58412;SDS011;44209;52.952;6.790;2023-05-31T04:41:58;23.20;;;10.37;;
58412;SDS011;44209;52.952;6.790;2023-05-31T04:44:28;23.60;;;10.20;;
58412;SDS011;44209;52.952;6.790;2023-05-31T04:46:55;18.53;;;9.10;;
58412;SDS011;44209;52.952;6.790;2023-05-31T04:49:22;18.70;;;9.90;;
58412;SDS011;44209;52.952;6.790;2023-05-31T04:51:49;25.77;;;9.63;;
58412;SDS011;44209;52.952;6.790;2023-05-31T04:54:15;20.60;;;9.60;;
58412;SDS011;44209;52.952;6.790;2023-05-31T04:56:40;29.50;;;10.27;;
58412;SDS011;44209;52.952;6.790;2023-05-31T04:59:06;23.20;;;10.53;;
58412;SDS011;44209;52.952;6.790;2023-05-31T05:01:32;18.97;;;10.50;;
58412;SDS011;44209;52.952;6.790;2023-05-31T05:03:58;19.90;;;10.03;;
58412;SDS011;44209;52.952;6.790;2023-05-31T05:06:25;17.27;;;9.43;;
58412;SDS011;44209;52.952;6.790;2023-05-31T05:08:51;19.73;;;9.43;;
58412;SDS011;44209;52.952;6.790;2023-05-31T05:11:17;19.53;;;9.47;;
58412;SDS011;44209;52.952;6.790;2023-05-31T05:13:42;17.97;;;8.97;;
58412;SDS011;44209;52.952;6.790;2023-05-31T05:16:08;20.47;;;10.13;;
58412;SDS011;44209;52.952;6.790;2023-05-31T05:18:34;21.17;;;10.30;;
58412;SDS011;44209;52.952;6.790;2023-05-31T05:21:01;17.93;;;9.40;;
58412;SDS011;44209;52.952;6.790;2023-05-31T05:23:26;18.00;;;9.27;;
58412;SDS011;44209;52.952;6.790;2023-05-31T05:25:52;20.37;;;9.93;;
58412;SDS011;44209;52.952;6.790;2023-05-31T05:28:18;18.47;;;9.43;;
58412;SDS011;44209;52.952;6.790;2023-05-31T05:30:43;21.47;;;9.67;;
58412;SDS011;44209;52.952;6.790;2023-05-31T05:33:10;19.80;;;9.40;;
58412;SDS011;44209;52.952;6.790;2023-05-31T05:35:35;18.47;;;9.53;;
58412;SDS011;44209;52.952;6.790;2023-05-31T05:38:01;17.03;;;8.67;;
58412;SDS011;44209;52.952;6.790;2023-05-31T05:40:27;20.33;;;9.87;;
58412;SDS011;44209;52.952;6.790;2023-05-31T05:42:53;22.93;;;10.63;;
58412;SDS011;44209;52.952;6.790;2023-05-31T05:45:19;20.33;;;9.77;;
58412;SDS011;44209;52.952;6.790;2023-05-31T05:47:45;21.93;;;9.73;;
58412;SDS011;44209;52.952;6.790;2023-05-31T05:50:11;20.07;;;10.37;;
58412;SDS011;44209;52.952;6.790;2023-05-31T05:52:37;19.50;;;9.97;;
58412;SDS011;44209;52.952;6.790;2023-05-31T05:55:06;17.15;;;10.32;;
58412;SDS011;44209;52.952;6.790;2023-05-31T05:57:33;22.27;;;10.23;;
58412;SDS011;44209;52.952;6.790;2023-05-31T05:59:58;17.30;;;10.57;;
58412;SDS011;44209;52.952;6.790;2023-05-31T06:02:24;16.52;;;10.88;;
58412;SDS011;44209;52.952;6.790;2023-05-31T06:04:50;20.10;;;10.68;;
58412;SDS011;44209;52.952;6.790;2023-05-31T06:07:16;19.92;;;10.60;;
58412;SDS011;44209;52.952;6.790;2023-05-31T06:09:42;16.58;;;10.38;;
58412;SDS011;44209;52.952;6.790;2023-05-31T06:12:08;22.77;;;11.10;;
58412;SDS011;44209;52.952;6.790;2023-05-31T06:14:34;17.38;;;10.10;;
58412;SDS011;44209;52.952;6.790;2023-05-31T06:17:00;16.70;;;10.63;;
58412;SDS011;44209;52.952;6.790;2023-05-31T06:19:26;20.33;;;11.18;;
58412;SDS011;44209;52.952;6.790;2023-05-31T06:21:51;18.48;;;10.20;;
58412;SDS011;44209;52.952;6.790;2023-05-31T06:24:19;20.25;;;10.40;;
58412;SDS011;44209;52.952;6.790;2023-05-31T06:26:44;15.23;;;9.85;;
58412;SDS011;44209;52.952;6.790;2023-05-31T06:29:10;15.98;;;10.07;;
58412;SDS011;44209;52.952;6.790;2023-05-31T06:31:36;17.42;;;9.95;;
58412;SDS011;44209;52.952;6.790;2023-05-31T06:34:04;18.50;;;9.90;;
58412;SDS011;44209;52.952;6.790;2023-05-31T06:36:30;14.18;;;9.45;;
58412;SDS011;44209;52.952;6.790;2023-05-31T06:38:56;14.93;;;8.65;;
58412;SDS011;44209;52.952;6.790;2023-05-31T06:41:22;15.73;;;8.82;;
58412;SDS011;44209;52.952;6.790;2023-05-31T06:43:49;11.73;;;6.88;;
58412;SDS011;44209;52.952;6.790;2023-05-31T06:46:14;13.32;;;6.93;;
58412;SDS011;44209;52.952;6.790;2023-05-31T06:48:40;12.32;;;6.28;;
58412;SDS011;44209;52.952;6.790;2023-05-31T06:51:06;13.73;;;6.70;;
58412;SDS011;44209;52.952;6.790;2023-05-31T06:53:31;11.63;;;6.82;;
58412;SDS011;44209;52.952;6.790;2023-05-31T06:55:57;12.57;;;6.05;;
58412;SDS011;44209;52.952;6.790;2023-05-31T06:58:23;13.50;;;6.75;;
58412;SDS011;44209;52.952;6.790;2023-05-31T07:00:49;11.65;;;6.45;;
58412;SDS011;44209;52.952;6.790;2023-05-31T07:03:15;14.07;;;7.05;;
58412;SDS011;44209;52.952;6.790;2023-05-31T07:05:40;11.93;;;7.07;;
58412;SDS011;44209;52.952;6.790;2023-05-31T07:08:09;13.45;;;7.00;;
58412;SDS011;44209;52.952;6.790;2023-05-31T07:10:35;11.65;;;7.22;;
58412;SDS011;44209;52.952;6.790;2023-05-31T07:13:01;9.93;;;6.20;;
58412;SDS011;44209;52.952;6.790;2023-05-31T07:15:26;13.63;;;7.45;;
58412;SDS011;44209;52.952;6.790;2023-05-31T07:17:53;12.23;;;7.55;;
58412;SDS011;44209;52.952;6.790;2023-05-31T07:20:19;18.73;;;8.32;;
58412;SDS011;44209;52.952;6.790;2023-05-31T07:22:44;12.27;;;7.20;;
58412;SDS011;44209;52.952;6.790;2023-05-31T07:25:10;12.57;;;7.97;;
58412;SDS011;44209;52.952;6.790;2023-05-31T07:27:36;12.90;;;7.22;;
58412;SDS011;44209;52.952;6.790;2023-05-31T07:30:02;14.68;;;7.00;;
58412;SDS011;44209;52.952;6.790;2023-05-31T07:32:28;12.30;;;7.03;;
58412;SDS011;44209;52.952;6.790;2023-05-31T07:34:53;9.95;;;6.57;;
58412;SDS011;44209;52.952;6.790;2023-05-31T07:37:19;14.93;;;7.10;;
58412;SDS011;44209;52.952;6.790;2023-05-31T07:39:45;12.35;;;6.25;;
58412;SDS011;44209;52.952;6.790;2023-05-31T07:42:11;12.15;;;6.15;;
58412;SDS011;44209;52.952;6.790;2023-05-31T07:44:38;10.80;;;6.32;;
58412;SDS011;44209;52.952;6.790;2023-05-31T07:47:04;11.52;;;6.00;;
58412;SDS011;44209;52.952;6.790;2023-05-31T07:49:30;14.35;;;6.45;;
58412;SDS011;44209;52.952;6.790;2023-05-31T07:51:55;9.40;;;5.82;;
58412;SDS011;44209;52.952;6.790;2023-05-31T07:54:21;9.77;;;6.05;;
58412;SDS011;44209;52.952;6.790;2023-05-31T07:56:47;12.02;;;6.18;;
58412;SDS011;44209;52.952;6.790;2023-05-31T07:59:13;7.32;;;5.30;;
58412;SDS011;44209;52.952;6.790;2023-05-31T08:01:38;11.65;;;6.13;;
58412;SDS011;44209;52.952;6.790;2023-05-31T08:04:09;9.35;;;5.43;;
58412;SDS011;44209;52.952;6.790;2023-05-31T08:06:36;12.60;;;5.15;;
58412;SDS011;44209;52.952;6.790;2023-05-31T08:09:05;10.57;;;5.43;;
58412;SDS011;44209;52.952;6.790;2023-05-31T08:11:31;11.20;;;5.65;;
58412;SDS011;44209;52.952;6.790;2023-05-31T08:13:57;10.52;;;5.38;;
58412;SDS011;44209;52.952;6.790;2023-05-31T08:16:23;9.63;;;5.07;;
58412;SDS011;44209;52.952;6.790;2023-05-31T08:18:49;7.20;;;4.25;;
58412;SDS011;44209;52.952;6.790;2023-05-31T08:21:14;10.38;;;5.53;;
58412;SDS011;44209;52.952;6.790;2023-05-31T08:23:40;8.77;;;5.30;;
58412;SDS011;44209;52.952;6.790;2023-05-31T08:26:08;10.48;;;5.20;;
58412;SDS011;44209;52.952;6.790;2023-05-31T08:28:34;5.80;;;4.28;;
58412;SDS011;44209;52.952;6.790;2023-05-31T08:30:59;7.40;;;4.90;;
58412;SDS011;44209;52.952;6.790;2023-05-31T08:33:28;8.52;;;4.70;;
58412;SDS011;44209;52.952;6.790;2023-05-31T08:35:56;10.48;;;4.70;;
58412;SDS011;44209;52.952;6.790;2023-05-31T08:38:28;8.73;;;4.97;;
58412;SDS011;44209;52.952;6.790;2023-05-31T08:40:54;10.25;;;4.43;;
58412;SDS011;44209;52.952;6.790;2023-05-31T08:43:24;10.27;;;4.28;;
58412;SDS011;44209;52.952;6.790;2023-05-31T08:45:52;10.75;;;4.57;;
58412;SDS011;44209;52.952;6.790;2023-05-31T08:51:08;6.88;;;4.28;;
58412;SDS011;44209;52.952;6.790;2023-05-31T08:53:34;8.63;;;4.47;;
58412;SDS011;44209;52.952;6.790;2023-05-31T08:56:01;6.88;;;4.30;;
58412;SDS011;44209;52.952;6.790;2023-05-31T08:58:28;9.10;;;4.32;;
58412;SDS011;44209;52.952;6.790;2023-05-31T09:00:55;7.68;;;4.28;;
58412;SDS011;44209;52.952;6.790;2023-05-31T09:03:21;7.00;;;4.18;;
58412;SDS011;44209;52.952;6.790;2023-05-31T09:05:49;6.85;;;4.60;;
58412;SDS011;44209;52.952;6.790;2023-05-31T09:08:16;8.10;;;4.63;;
58412;SDS011;44209;52.952;6.790;2023-05-31T09:10:42;5.82;;;4.20;;
58412;SDS011;44209;52.952;6.790;2023-05-31T09:13:07;6.88;;;4.28;;
58412;SDS011;44209;52.952;6.790;2023-05-31T09:15:35;7.47;;;4.80;;
58412;SDS011;44209;52.952;6.790;2023-05-31T09:18:14;9.18;;;4.50;;
58412;SDS011;44209;52.952;6.790;2023-05-31T09:20:43;10.00;;;5.32;;
58412;SDS011;44209;52.952;6.790;2023-05-31T09:23:11;9.85;;;4.90;;
58412;SDS011;44209;52.952;6.790;2023-05-31T09:25:47;10.52;;;5.10;;
58412;SDS011;44209;52.952;6.790;2023-05-31T09:28:14;8.40;;;5.15;;
58412;SDS011;44209;52.952;6.790;2023-05-31T09:30:41;7.88;;;4.78;;
58412;SDS011;44209;52.952;6.790;2023-05-31T09:33:07;8.38;;;4.97;;
58412;SDS011;44209;52.952;6.790;2023-05-31T09:35:33;12.02;;;5.68;;
58412;SDS011;44209;52.952;6.790;2023-05-31T09:38:05;11.98;;;5.38;;
58412;SDS011;44209;52.952;6.790;2023-05-31T09:40:32;9.95;;;5.32;;
58412;SDS011;44209;52.952;6.790;2023-05-31T09:42:59;9.63;;;5.03;;
58412;SDS011;44209;52.952;6.790;2023-05-31T09:45:25;8.43;;;5.25;;
58412;SDS011;44209;52.952;6.790;2023-05-31T09:47:53;10.27;;;5.65;;
58412;SDS011;44209;52.952;6.790;2023-05-31T09:50:20;12.75;;;5.70;;
58412;SDS011;44209;52.952;6.790;2023-05-31T09:52:47;8.90;;;5.72;;
58412;SDS011;44209;52.952;6.790;2023-05-31T09:55:19;8.15;;;5.05;;
58412;SDS011;44209;52.952;6.790;2023-05-31T09:57:45;9.82;;;5.40;;
58412;SDS011;44209;52.952;6.790;2023-05-31T10:02:48;9.02;;;4.68;;
58412;SDS011;44209;52.952;6.790;2023-05-31T10:05:18;8.45;;;5.20;;
58412;SDS011;44209;52.952;6.790;2023-05-31T10:07:49;9.60;;;5.38;;
58412;SDS011;44209;52.952;6.790;2023-05-31T10:10:16;11.37;;;5.73;;
58412;SDS011;44209;52.952;6.790;2023-05-31T10:15:18;8.80;;;5.50;;
58412;SDS011;44209;52.952;6.790;2023-05-31T10:20:22;8.50;;;5.00;;
58412;SDS011;44209;52.952;6.790;2023-05-31T10:22:50;10.98;;;5.70;;
58412;SDS011;44209;52.952;6.790;2023-05-31T10:25:41;7.90;;;5.28;;
58412;SDS011;44209;52.952;6.790;2023-05-31T10:28:14;9.70;;;5.35;;
58412;SDS011;44209;52.952;6.790;2023-05-31T10:33:14;6.75;;;4.85;;
58412;SDS011;44209;52.952;6.790;2023-05-31T10:35:41;11.63;;;5.45;;
58412;SDS011;44209;52.952;6.790;2023-05-31T10:38:06;12.65;;;5.65;;
58412;SDS011;44209;52.952;6.790;2023-05-31T10:40:38;10.18;;;5.00;;
58412;SDS011;44209;52.952;6.790;2023-05-31T10:43:35;11.57;;;5.78;;
58412;SDS011;44209;52.952;6.790;2023-05-31T10:46:10;11.13;;;5.50;;
58412;SDS011;44209;52.952;6.790;2023-05-31T10:48:42;12.23;;;5.50;;
58412;SDS011;44209;52.952;6.790;2023-05-31T10:51:15;12.80;;;6.68;;
58412;SDS011;44209;52.952;6.790;2023-05-31T10:53:41;15.10;;;5.97;;
58412;SDS011;44209;52.952;6.790;2023-05-31T10:56:13;11.77;;;6.10;;
58412;SDS011;44209;52.952;6.790;2023-05-31T10:58:40;10.00;;;6.28;;
58412;SDS011;44209;52.952;6.790;2023-05-31T11:01:11;10.20;;;5.90;;
58412;SDS011;44209;52.952;6.790;2023-05-31T11:03:45;10.27;;;6.30;;
58412;SDS011;44209;52.952;6.790;2023-05-31T11:06:15;12.75;;;5.68;;
58412;SDS011;44209;52.952;6.790;2023-05-31T11:08:58;11.20;;;6.32;;
58412;SDS011;44209;52.952;6.790;2023-05-31T11:14:29;10.68;;;6.63;;
58412;SDS011;44209;52.952;6.790;2023-05-31T11:19:27;12.60;;;6.53;;
58412;SDS011;44209;52.952;6.790;2023-05-31T11:21:55;11.82;;;6.82;;
58412;SDS011;44209;52.952;6.790;2023-05-31T11:24:37;12.20;;;5.78;;
58412;SDS011;44209;52.952;6.790;2023-05-31T11:27:03;10.20;;;6.38;;
58412;SDS011;44209;52.952;6.790;2023-05-31T11:32:09;10.30;;;6.10;;
58412;SDS011;44209;52.952;6.790;2023-05-31T11:37:39;7.28;;;5.93;;
58412;SDS011;44209;52.952;6.790;2023-05-31T11:40:10;7.88;;;5.78;;
58412;SDS011;44209;52.952;6.790;2023-05-31T11:42:38;10.98;;;6.00;;
58412;SDS011;44209;52.952;6.790;2023-05-31T11:45:15;9.63;;;5.50;;
58412;SDS011;44209;52.952;6.790;2023-05-31T11:50:20;8.70;;;5.30;;
58412;SDS011;44209;52.952;6.790;2023-05-31T11:52:45;12.00;;;5.60;;
58412;SDS011;44209;52.952;6.790;2023-05-31T11:55:11;9.02;;;6.35;;
58412;SDS011;44209;52.952;6.790;2023-05-31T11:57:42;10.52;;;6.35;;
58412;SDS011;44209;52.952;6.790;2023-05-31T12:00:17;9.10;;;5.65;;
58412;SDS011;44209;52.952;6.790;2023-05-31T12:02:50;10.02;;;6.00;;
58412;SDS011;44209;52.952;6.790;2023-05-31T12:05:17;11.43;;;6.60;;
58412;SDS011;44209;52.952;6.790;2023-05-31T12:07:44;12.02;;;6.03;;
58412;SDS011;44209;52.952;6.790;2023-05-31T12:10:10;9.10;;;5.65;;
58412;SDS011;44209;52.952;6.790;2023-05-31T12:12:38;9.43;;;5.95;;
58412;SDS011;44209;52.952;6.790;2023-05-31T12:15:04;9.85;;;5.85;;
58412;SDS011;44209;52.952;6.790;2023-05-31T12:17:31;12.18;;;5.40;;
58412;SDS011;44209;52.952;6.790;2023-05-31T12:19:57;9.98;;;5.35;;
58412;SDS011;44209;52.952;6.790;2023-05-31T12:22:24;7.55;;;4.45;;
58412;SDS011;44209;52.952;6.790;2023-05-31T12:24:53;6.68;;;4.70;;
58412;SDS011;44209;52.952;6.790;2023-05-31T12:27:21;10.60;;;4.50;;
58412;SDS011;44209;52.952;6.790;2023-05-31T12:29:48;8.20;;;4.45;;
58412;SDS011;44209;52.952;6.790;2023-05-31T12:32:14;8.48;;;4.25;;
58412;SDS011;44209;52.952;6.790;2023-05-31T12:34:44;7.40;;;4.47;;
58412;SDS011;44209;52.952;6.790;2023-05-31T12:37:10;9.50;;;4.45;;
58412;SDS011;44209;52.952;6.790;2023-05-31T12:39:39;9.05;;;4.45;;
58412;SDS011;44209;52.952;6.790;2023-05-31T12:42:05;6.60;;;4.20;;
58412;SDS011;44209;52.952;6.790;2023-05-31T12:44:32;9.13;;;4.50;;
58412;SDS011;44209;52.952;6.790;2023-05-31T12:46:59;7.80;;;4.38;;
58412;SDS011;44209;52.952;6.790;2023-05-31T12:49:27;7.85;;;4.05;;
58412;SDS011;44209;52.952;6.790;2023-05-31T12:54:30;7.47;;;4.30;;
58412;SDS011;44209;52.952;6.790;2023-05-31T12:56:57;8.20;;;4.05;;
58412;SDS011;44209;52.952;6.790;2023-05-31T12:59:24;6.90;;;4.05;;
58412;SDS011;44209;52.952;6.790;2023-05-31T13:01:51;6.30;;;3.78;;
58412;SDS011;44209;52.952;6.790;2023-05-31T13:04:16;6.82;;;4.40;;
58412;SDS011;44209;52.952;6.790;2023-05-31T13:06:42;6.70;;;3.88;;
58412;SDS011;44209;52.952;6.790;2023-05-31T13:09:08;8.40;;;4.45;;
58412;SDS011;44209;52.952;6.790;2023-05-31T13:11:34;8.48;;;3.92;;
58412;SDS011;44209;52.952;6.790;2023-05-31T13:14:01;9.57;;;4.40;;
58412;SDS011;44209;52.952;6.790;2023-05-31T13:16:30;7.47;;;4.40;;
58412;SDS011;44209;52.952;6.790;2023-05-31T13:18:59;10.43;;;5.88;;
58412;SDS011;44209;52.952;6.790;2023-05-31T13:21:27;10.73;;;4.78;;
58412;SDS011;44209;52.952;6.790;2023-05-31T13:23:53;10.27;;;4.72;;
58412;SDS011;44209;52.952;6.790;2023-05-31T13:26:20;6.65;;;4.55;;
58412;SDS011;44209;52.952;6.790;2023-05-31T13:28:47;8.20;;;4.55;;
58412;SDS011;44209;52.952;6.790;2023-05-31T13:31:13;7.13;;;4.75;;
58412;SDS011;44209;52.952;6.790;2023-05-31T13:33:39;7.32;;;4.00;;
58412;SDS011;44209;52.952;6.790;2023-05-31T13:36:05;9.93;;;5.00;;
58412;SDS011;44209;52.952;6.790;2023-05-31T13:38:31;8.50;;;4.10;;
58412;SDS011;44209;52.952;6.790;2023-05-31T13:40:57;8.68;;;3.97;;
58412;SDS011;44209;52.952;6.790;2023-05-31T13:43:23;10.73;;;4.38;;
58412;SDS011;44209;52.952;6.790;2023-05-31T13:45:49;6.15;;;4.60;;
58412;SDS011;44209;52.952;6.790;2023-05-31T13:48:15;5.43;;;4.30;;
58412;SDS011;44209;52.952;6.790;2023-05-31T13:50:42;4.32;;;3.53;;
58412;SDS011;44209;52.952;6.790;2023-05-31T13:53:08;8.82;;;3.75;;
58412;SDS011;44209;52.952;6.790;2023-05-31T13:55:36;7.05;;;3.70;;
58412;SDS011;44209;52.952;6.790;2023-05-31T13:58:03;8.20;;;3.53;;
58412;SDS011;44209;52.952;6.790;2023-05-31T14:00:33;6.28;;;3.72;;
58412;SDS011;44209;52.952;6.790;2023-05-31T14:02:59;5.25;;;3.33;;
58412;SDS011;44209;52.952;6.790;2023-05-31T14:05:25;5.97;;;3.50;;
58412;SDS011;44209;52.952;6.790;2023-05-31T14:07:54;9.00;;;3.80;;
58412;SDS011;44209;52.952;6.790;2023-05-31T14:10:20;5.35;;;3.53;;
58412;SDS011;44209;52.952;6.790;2023-05-31T14:12:46;5.15;;;3.08;;
58412;SDS011;44209;52.952;6.790;2023-05-31T14:15:13;7.43;;;3.13;;
58412;SDS011;44209;52.952;6.790;2023-05-31T14:17:39;7.07;;;3.13;;
58412;SDS011;44209;52.952;6.790;2023-05-31T14:20:05;7.03;;;3.10;;
58412;SDS011;44209;52.952;6.790;2023-05-31T14:22:31;6.32;;;3.40;;
58412;SDS011;44209;52.952;6.790;2023-05-31T14:24:57;7.70;;;3.45;;
58412;SDS011;44209;52.952;6.790;2023-05-31T14:27:23;6.35;;;2.85;;
58412;SDS011;44209;52.952;6.790;2023-05-31T14:29:49;6.32;;;3.00;;
58412;SDS011;44209;52.952;6.790;2023-05-31T14:32:15;5.35;;;2.70;;
58412;SDS011;44209;52.952;6.790;2023-05-31T14:34:41;6.47;;;3.60;;
58412;SDS011;44209;52.952;6.790;2023-05-31T14:37:10;5.75;;;3.53;;
58412;SDS011;44209;52.952;6.790;2023-05-31T14:39:39;5.35;;;3.10;;
58412;SDS011;44209;52.952;6.790;2023-05-31T14:42:05;6.57;;;3.17;;
58412;SDS011;44209;52.952;6.790;2023-05-31T14:44:31;7.18;;;3.03;;
58412;SDS011;44209;52.952;6.790;2023-05-31T14:46:57;6.32;;;3.10;;
58412;SDS011;44209;52.952;6.790;2023-05-31T14:49:23;7.10;;;3.55;;
58412;SDS011;44209;52.952;6.790;2023-05-31T14:51:49;5.43;;;3.20;;
58412;SDS011;44209;52.952;6.790;2023-05-31T14:54:18;9.82;;;3.53;;
58412;SDS011;44209;52.952;6.790;2023-05-31T14:56:44;4.72;;;3.05;;
58412;SDS011;44209;52.952;6.790;2023-05-31T14:59:11;5.93;;;3.30;;
58412;SDS011;44209;52.952;6.790;2023-05-31T15:01:37;6.25;;;3.28;;
58412;SDS011;44209;52.952;6.790;2023-05-31T15:04:08;6.45;;;3.33;;
58412;SDS011;44209;52.952;6.790;2023-05-31T15:06:34;5.03;;;3.22;;
58412;SDS011;44209;52.952;6.790;2023-05-31T15:09:01;7.57;;;3.30;;
58412;SDS011;44209;52.952;6.790;2023-05-31T15:11:28;7.88;;;3.38;;
58412;SDS011;44209;52.952;6.790;2023-05-31T15:13:54;5.10;;;3.40;;